Time;durP1;ratioP1;P1;durP2;ratioP2;P2;SDS_P1;SDS_P2;PMS_P1;PMS_P2;Temp;Humidity;BMP_temperature;BMP_pressure;BME280_temperature;BME280_humidity;BME280_pressure;Samples;Min_cycle;Max_cycle;Signal;HPM_P1;HPM_P2
2023/06/17 00:01:17;;;;;;;7.30;5.60;;;;;;;;;;5036194;28;20484;-62
2023/06/17 00:03:46;;;;;;;10.50;5.60;;;;;;;;;;5036023;28;21028;-62
2023/06/17 00:06:13;;;;;;;8.40;5.20;;;;;;;;;;5036104;28;20443;-62
2023/06/17 00:08:40;;;;;;;8.33;6.50;;;;;;;;;;5036043;28;20463;-62
2023/06/17 00:11:07;;;;;;;6.40;5.80;;;;;;;;;;5037124;28;20465;-62
2023/06/17 00:13:34;;;;;;;6.27;5.60;;;;;;;;;;5036143;28;20448;-62
2023/06/17 00:16:06;;;;;;;6.43;5.60;;;;;;;;;;5036419;28;20551;-62
2023/06/17 00:18:33;;;;;;;6.70;6.03;;;;;;;;;;5035733;28;20470;-62
2023/06/17 00:21:02;;;;;;;6.27;5.67;;;;;;;;;;5036103;28;20450;-61
2023/06/17 00:23:29;;;;;;;10.60;6.23;;;;;;;;;;5036215;28;20455;-62
2023/06/17 00:25:56;;;;;;;6.17;5.43;;;;;;;;;;5035711;28;20937;-62
2023/06/17 00:28:23;;;;;;;7.27;5.60;;;;;;;;;;5035815;28;20444;-62
2023/06/17 00:30:50;;;;;;;6.70;5.23;;;;;;;;;;5035977;28;20442;-62
2023/06/17 00:33:17;;;;;;;5.80;5.20;;;;;;;;;;5035841;28;20471;-62
2023/06/17 00:35:45;;;;;;;6.37;5.77;;;;;;;;;;5035848;28;20442;-62
2023/06/17 00:38:13;;;;;;;5.90;5.40;;;;;;;;;;5035630;28;20490;-62
2023/06/17 00:40:40;;;;;;;6.83;6.23;;;;;;;;;;5035584;28;20450;-62
2023/06/17 00:43:07;;;;;;;5.73;5.20;;;;;;;;;;5035771;28;20440;-62
2023/06/17 00:45:38;;;;;;;7.83;5.90;;;;;;;;;;5035284;28;20478;-62
2023/06/17 00:48:06;;;;;;;9.83;5.87;;;;;;;;;;5035669;28;20475;-62
2023/06/17 00:50:33;;;;;;;6.10;5.50;;;;;;;;;;5035587;28;20440;-62
2023/06/17 00:53:01;;;;;;;6.07;5.57;;;;;;;;;;5036117;28;20457;-62
2023/06/17 00:55:30;;;;;;;6.33;5.60;;;;;;;;;;5035196;28;20492;-62
2023/06/17 00:57:57;;;;;;;6.17;5.53;;;;;;;;;;5035221;28;20470;-63
2023/06/17 01:00:24;;;;;;;6.40;5.77;;;;;;;;;;5035828;28;20445;-62
2023/06/17 01:02:52;;;;;;;6.30;5.70;;;;;;;;;;5035623;28;20447;-62
2023/06/17 01:05:20;;;;;;;8.33;6.17;;;;;;;;;;5034746;28;20925;-62
2023/06/17 01:07:52;;;;;;;6.33;5.83;;;;;;;;;;5035155;28;20454;-62
2023/06/17 01:10:23;;;;;;;6.23;5.40;;;;;;;;;;5035132;28;20922;-62
2023/06/17 01:12:51;;;;;;;11.80;6.20;;;;;;;;;;5035671;28;20439;-62
2023/06/17 01:15:19;;;;;;;6.53;6.00;;;;;;;;;;5035349;28;20796;-62
2023/06/17 01:17:46;;;;;;;8.23;5.70;;;;;;;;;;5034576;28;20477;-62
2023/06/17 01:20:15;;;;;;;6.10;5.57;;;;;;;;;;5034739;28;20527;-62
2023/06/17 01:22:43;;;;;;;5.33;4.93;;;;;;;;;;5035102;28;20469;-63
2023/06/17 01:25:13;;;;;;;7.97;6.43;;;;;;;;;;5035700;28;20457;-62
2023/06/17 01:27:41;;;;;;;7.27;6.43;;;;;;;;;;5034972;28;20483;-62
2023/06/17 01:30:09;;;;;;;8.17;6.70;;;;;;;;;;5034426;28;20969;-62
2023/06/17 01:32:36;;;;;;;5.73;5.17;;;;;;;;;;5034842;28;20485;-62
2023/06/17 01:35:05;;;;;;;10.13;6.67;;;;;;;;;;5034413;28;21010;-62
2023/06/17 01:37:36;;;;;;;7.10;5.93;;;;;;;;;;5034785;28;20459;-62
2023/06/17 01:40:06;;;;;;;6.60;6.00;;;;;;;;;;5034332;28;20426;-62
2023/06/17 01:42:37;;;;;;;6.20;5.60;;;;;;;;;;5034593;28;20470;-62
2023/06/17 01:45:06;;;;;;;9.20;5.70;;;;;;;;;;5034460;28;20480;-62
2023/06/17 01:47:33;;;;;;;8.43;6.07;;;;;;;;;;5034227;28;20444;-62
2023/06/17 01:50:01;;;;;;;7.60;5.57;;;;;;;;;;5034461;28;20444;-62
2023/06/17 01:52:28;;;;;;;9.17;6.90;;;;;;;;;;5034081;28;20448;-61
2023/06/17 01:54:57;;;;;;;6.57;6.03;;;;;;;;;;5034540;28;20439;-62
2023/06/17 01:57:25;;;;;;;8.33;6.47;;;;;;;;;;5034906;28;20443;-62
2023/06/17 01:59:54;;;;;;;7.20;6.30;;;;;;;;;;5034144;28;20515;-62
2023/06/17 02:02:21;;;;;;;6.40;5.80;;;;;;;;;;5033878;28;20447;-62
2023/06/17 02:04:48;;;;;;;9.87;7.23;;;;;;;;;;5033797;28;20958;-62
2023/06/17 02:07:17;;;;;;;6.73;6.00;;;;;;;;;;5034921;28;20493;-62
2023/06/17 02:09:45;;;;;;;12.07;7.60;;;;;;;;;;5033746;28;20447;-62
2023/06/17 02:12:12;;;;;;;6.83;6.20;;;;;;;;;;5034111;28;20447;-62
2023/06/17 02:14:39;;;;;;;12.23;7.10;;;;;;;;;;5034179;28;20453;-62
2023/06/17 02:17:11;;;;;;;7.73;6.90;;;;;;;;;;5034153;28;20476;-62
2023/06/17 02:19:39;;;;;;;7.47;6.33;;;;;;;;;;5033858;28;20470;-62
2023/06/17 02:22:06;;;;;;;6.67;6.07;;;;;;;;;;5033905;28;20451;-62
2023/06/17 02:24:34;;;;;;;8.33;7.53;;;;;;;;;;5034041;28;20450;-62
2023/06/17 02:27:02;;;;;;;8.83;6.93;;;;;;;;;;5033805;28;20451;-62
2023/06/17 02:29:29;;;;;;;10.20;7.50;;;;;;;;;;5033968;28;20860;-62
2023/06/17 02:31:56;;;;;;;6.50;5.90;;;;;;;;;;5033626;28;20451;-62
2023/06/17 02:34:25;;;;;;;7.70;6.53;;;;;;;;;;5033691;28;20447;-62
2023/06/17 02:36:56;;;;;;;8.53;7.67;;;;;;;;;;5033382;28;20482;-62
2023/06/17 02:39:23;;;;;;;7.27;6.60;;;;;;;;;;5033788;28;20949;-62
2023/06/17 02:41:50;;;;;;;7.03;6.33;;;;;;;;;;5033648;28;20446;-62
2023/06/17 02:44:17;;;;;;;7.50;6.80;;;;;;;;;;5033447;28;20449;-62
2023/06/17 02:46:45;;;;;;;6.80;6.20;;;;;;;;;;5033801;28;20466;-62
2023/06/17 02:49:13;;;;;;;7.60;6.90;;;;;;;;;;5033438;28;20463;-62
2023/06/17 02:51:41;;;;;;;8.20;6.50;;;;;;;;;;5033413;28;20478;-62
2023/06/17 02:54:10;;;;;;;7.83;6.80;;;;;;;;;;5033131;28;20453;-62
2023/06/17 02:56:37;;;;;;;7.53;6.53;;;;;;;;;;5033081;28;20459;-62
2023/06/17 02:59:08;;;;;;;10.20;7.73;;;;;;;;;;5033320;28;20481;-62
2023/06/17 03:01:41;;;;;;;7.80;6.80;;;;;;;;;;5034129;28;20435;-62
2023/06/17 03:04:09;;;;;;;7.77;7.07;;;;;;;;;;5033228;28;20442;-62
2023/06/17 03:06:36;;;;;;;9.67;6.90;;;;;;;;;;5033257;28;20810;-62
2023/06/17 03:09:05;;;;;;;8.23;7.10;;;;;;;;;;5033409;28;20435;-62
2023/06/17 03:11:32;;;;;;;12.20;6.97;;;;;;;;;;5032870;28;20948;-62
2023/06/17 03:13:59;;;;;;;7.90;7.10;;;;;;;;;;5032954;28;20924;-62
2023/06/17 03:16:28;;;;;;;10.10;6.93;;;;;;;;;;5033258;28;20463;-62
2023/06/17 03:18:55;;;;;;;7.93;7.20;;;;;;;;;;5033198;28;20567;-62
2023/06/17 03:21:22;;;;;;;7.97;7.20;;;;;;;;;;5032972;28;20446;-62
2023/06/17 03:23:50;;;;;;;9.20;8.40;;;;;;;;;;5032835;28;20459;-62
2023/06/17 03:26:20;;;;;;;8.00;7.30;;;;;;;;;;5033081;28;20465;-62
2023/06/17 03:28:47;;;;;;;10.20;8.60;;;;;;;;;;5034210;28;20538;-62
2023/06/17 03:31:18;;;;;;;8.13;7.43;;;;;;;;;;5037045;28;20439;-62
2023/06/17 03:33:45;;;;;;;9.03;8.00;;;;;;;;;;5037084;28;20439;-62
2023/06/17 03:36:12;;;;;;;9.13;7.80;;;;;;;;;;5036727;28;20991;-62
2023/06/17 03:38:39;;;;;;;8.20;7.50;;;;;;;;;;5036515;28;20483;-62
2023/06/17 03:41:06;;;;;;;9.67;8.67;;;;;;;;;;5036461;28;20443;-62
2023/06/17 03:43:35;;;;;;;9.83;8.37;;;;;;;;;;5036989;28;20469;-62
2023/06/17 03:46:02;;;;;;;9.60;8.33;;;;;;;;;;5036655;28;20475;-62
2023/06/17 03:48:29;;;;;;;10.33;8.20;;;;;;;;;;5036975;28;20455;-62
2023/06/17 03:50:57;;;;;;;9.73;8.73;;;;;;;;;;5035392;28;20450;-62
2023/06/17 03:53:24;;;;;;;9.83;7.63;;;;;;;;;;5035325;28;20459;-62
2023/06/17 03:55:52;;;;;;;9.27;8.03;;;;;;;;;;5035866;28;20466;-62
2023/06/17 03:58:19;;;;;;;10.03;9.03;;;;;;;;;;5035453;28;20463;-62
2023/06/17 04:00:48;;;;;;;12.77;9.10;;;;;;;;;;5036265;28;20538;-63
2023/06/17 04:03:15;;;;;;;9.97;8.30;;;;;;;;;;5036370;28;20443;-62
2023/06/17 04:05:42;;;;;;;9.40;8.50;;;;;;;;;;5035999;28;20446;-62
2023/06/17 04:08:09;;;;;;;16.47;9.50;;;;;;;;;;5035884;28;20474;-62
2023/06/17 04:10:37;;;;;;;9.40;8.40;;;;;;;;;;5035928;28;20932;-61
2023/06/17 04:13:04;;;;;;;9.63;8.73;;;;;;;;;;5036319;28;20442;-62
2023/06/17 04:15:31;;;;;;;10.87;9.03;;;;;;;;;;5036484;28;20814;-62
2023/06/17 04:18:02;;;;;;;10.13;9.13;;;;;;;;;;5036993;28;20793;-62
2023/06/17 04:20:29;;;;;;;10.63;9.33;;;;;;;;;;5036252;28;20895;-62
2023/06/17 04:22:56;;;;;;;11.57;9.57;;;;;;;;;;5035920;28;20448;-62
2023/06/17 04:25:23;;;;;;;12.90;8.43;;;;;;;;;;5035873;28;20455;-62
2023/06/17 04:27:53;;;;;;;10.00;9.07;;;;;;;;;;5036106;28;20449;-62
2023/06/17 04:30:21;;;;;;;9.53;8.63;;;;;;;;;;5036063;28;20452;-62
2023/06/17 04:32:50;;;;;;;12.20;9.97;;;;;;;;;;5035987;28;20441;-62
2023/06/17 04:35:20;;;;;;;15.27;9.87;;;;;;;;;;5036039;28;20470;-62
2023/06/17 04:37:53;;;;;;;11.70;9.87;;;;;;;;;;5036699;28;20838;-61
2023/06/17 04:40:21;;;;;;;12.63;10.63;;;;;;;;;;5034919;28;20480;-62
2023/06/17 04:42:48;;;;;;;11.00;9.90;;;;;;;;;;5035416;28;21003;-61
2023/06/17 04:45:16;;;;;;;14.30;10.10;;;;;;;;;;5035103;28;20831;-61
2023/06/17 04:47:44;;;;;;;12.93;10.70;;;;;;;;;;5035369;28;20449;-61
2023/06/17 04:50:12;;;;;;;14.57;10.73;;;;;;;;;;5035669;28;20451;-63
2023/06/17 04:52:42;;;;;;;13.80;10.70;;;;;;;;;;5035362;28;20496;-62
2023/06/17 04:55:11;;;;;;;19.57;10.13;;;;;;;;;;5035462;28;20958;-61
2023/06/17 04:57:38;;;;;;;14.20;9.80;;;;;;;;;;5034765;28;20864;-61
2023/06/17 05:00:06;;;;;;;13.67;10.20;;;;;;;;;;5034826;28;20476;-62
2023/06/17 05:02:34;;;;;;;12.17;10.90;;;;;;;;;;5034857;28;20513;-62
2023/06/17 05:05:01;;;;;;;14.37;10.67;;;;;;;;;;5034954;28;20451;-62
2023/06/17 05:07:28;;;;;;;11.13;9.97;;;;;;;;;;5035182;28;20475;-62
2023/06/17 05:09:57;;;;;;;15.13;10.17;;;;;;;;;;5035217;28;20443;-62
2023/06/17 05:12:24;;;;;;;12.43;10.50;;;;;;;;;;5035267;28;20453;-61
2023/06/17 05:14:51;;;;;;;11.40;10.20;;;;;;;;;;5034795;28;20510;-62
2023/06/17 05:17:18;;;;;;;16.73;11.20;;;;;;;;;;5034728;28;20439;-61
2023/06/17 05:19:45;;;;;;;12.10;10.90;;;;;;;;;;5034718;28;20479;-61
2023/06/17 05:22:13;;;;;;;12.13;10.90;;;;;;;;;;5034625;28;20446;-61
2023/06/17 05:24:40;;;;;;;15.97;11.93;;;;;;;;;;5034495;28;20956;-61
2023/06/17 05:27:09;;;;;;;12.80;11.00;;;;;;;;;;5034516;28;20446;-61
2023/06/17 05:29:36;;;;;;;12.97;11.67;;;;;;;;;;5034452;28;20498;-62
2023/06/17 05:32:03;;;;;;;12.20;11.00;;;;;;;;;;5034735;28;20447;-61
2023/06/17 05:34:30;;;;;;;13.07;11.70;;;;;;;;;;5034698;28;20465;-61
2023/06/17 05:36:57;;;;;;;11.93;10.90;;;;;;;;;;5034595;28;20891;-62
2023/06/17 05:39:25;;;;;;;14.27;11.03;;;;;;;;;;5035237;28;20523;-61
2023/06/17 05:41:52;;;;;;;12.50;10.90;;;;;;;;;;5034885;28;20443;-61
2023/06/17 05:44:20;;;;;;;12.63;10.83;;;;;;;;;;5034212;28;20443;-61
2023/06/17 05:46:48;;;;;;;12.20;10.10;;;;;;;;;;5033836;28;20554;-61
2023/06/17 05:49:15;;;;;;;16.27;10.73;;;;;;;;;;5034371;28;20444;-61
2023/06/17 05:51:42;;;;;;;12.40;10.10;;;;;;;;;;5033878;28;20507;-61
2023/06/17 05:54:10;;;;;;;10.73;9.73;;;;;;;;;;5034497;28;20799;-62
2023/06/17 05:56:37;;;;;;;13.57;10.23;;;;;;;;;;5034122;28;20443;-62
2023/06/17 05:59:04;;;;;;;15.53;10.27;;;;;;;;;;5033777;28;20430;-62
2023/06/17 06:01:32;;;;;;;13.03;10.80;;;;;;;;;;5033756;28;20449;-62
2023/06/17 06:04:00;;;;;;;11.27;10.07;;;;;;;;;;5033948;28;20792;-61
2023/06/17 06:06:27;;;;;;;16.03;9.53;;;;;;;;;;5033884;28;20807;-61
2023/06/17 06:08:54;;;;;;;10.30;9.20;;;;;;;;;;5033763;28;20449;-62
2023/06/17 06:11:21;;;;;;;13.20;10.23;;;;;;;;;;5034029;28;20453;-61
2023/06/17 06:13:48;;;;;;;12.17;9.80;;;;;;;;;;5033511;28;20509;-61
2023/06/17 06:16:15;;;;;;;11.47;9.50;;;;;;;;;;5034026;28;20455;-61
2023/06/17 06:18:44;;;;;;;15.50;9.03;;;;;;;;;;5033952;28;20439;-61
2023/06/17 06:21:11;;;;;;;13.63;10.00;;;;;;;;;;5033460;28;20987;-62
2023/06/17 06:23:38;;;;;;;10.43;9.50;;;;;;;;;;5033751;28;20453;-62
2023/06/17 06:26:05;;;;;;;10.70;9.60;;;;;;;;;;5033704;28;20439;-61
2023/06/17 06:28:33;;;;;;;10.30;9.20;;;;;;;;;;5033498;28;20447;-62
2023/06/17 06:31:00;;;;;;;11.90;10.70;;;;;;;;;;5033054;28;20450;-61
2023/06/17 06:33:27;;;;;;;11.50;10.30;;;;;;;;;;5033138;28;20453;-61
2023/06/17 06:35:55;;;;;;;12.03;10.83;;;;;;;;;;5033627;28;20446;-62
2023/06/17 06:38:23;;;;;;;10.90;9.67;;;;;;;;;;5033871;28;20798;-61
2023/06/17 06:40:50;;;;;;;12.93;9.17;;;;;;;;;;5033411;28;20496;-59
2023/06/17 06:43:17;;;;;;;10.37;9.27;;;;;;;;;;5033397;28;20442;-59
2023/06/17 06:45:44;;;;;;;13.20;10.43;;;;;;;;;;5032901;28;20481;-60
2023/06/17 06:48:11;;;;;;;11.27;8.50;;;;;;;;;;5032654;28;20447;-59
2023/06/17 06:50:39;;;;;;;12.50;9.57;;;;;;;;;;5032925;28;20446;-61
2023/06/17 06:53:07;;;;;;;9.60;8.53;;;;;;;;;;5033052;28;20438;-66
2023/06/17 06:55:34;;;;;;;13.00;9.20;;;;;;;;;;5033090;28;20446;-63
2023/06/17 06:58:01;;;;;;;13.57;9.00;;;;;;;;;;5033926;28;20451;-63
2023/06/17 07:00:28;;;;;;;9.00;8.20;;;;;;;;;;5032813;28;20477;-63
2023/06/17 07:02:56;;;;;;;9.80;8.63;;;;;;;;;;5032502;28;20450;-63
2023/06/17 07:05:23;;;;;;;9.27;7.90;;;;;;;;;;5033250;28;20452;-62
2023/06/17 07:07:51;;;;;;;10.37;9.30;;;;;;;;;;5032418;28;20448;-63
2023/06/17 07:10:19;;;;;;;9.87;8.97;;;;;;;;;;5033039;28;20453;-62
2023/06/17 07:12:46;;;;;;;9.13;8.33;;;;;;;;;;5032895;28;20956;-63
2023/06/17 07:15:14;;;;;;;9.63;8.60;;;;;;;;;;5033493;28;20447;-63
2023/06/17 07:17:41;;;;;;;9.53;8.73;;;;;;;;;;5032591;28;20451;-63
2023/06/17 07:20:08;;;;;;;11.17;9.40;;;;;;;;;;5032509;28;20980;-63
2023/06/17 07:22:35;;;;;;;10.13;8.67;;;;;;;;;;5032799;28;20511;-63
2023/06/17 07:25:03;;;;;;;9.57;8.67;;;;;;;;;;5033312;28;20506;-63
2023/06/17 07:27:31;;;;;;;13.53;8.60;;;;;;;;;;5033856;28;20457;-63
2023/06/17 07:29:59;;;;;;;10.90;9.90;;;;;;;;;;5033007;28;20506;-62
2023/06/17 07:32:26;;;;;;;15.80;8.93;;;;;;;;;;5033151;28;20446;-63
2023/06/17 07:34:53;;;;;;;10.23;8.83;;;;;;;;;;5032969;28;20439;-62
2023/06/17 07:37:21;;;;;;;9.40;8.40;;;;;;;;;;5033021;28;20451;-63
2023/06/17 07:39:48;;;;;;;13.53;9.03;;;;;;;;;;5032729;28;20824;-64
2023/06/17 07:42:16;;;;;;;9.60;8.77;;;;;;;;;;5033121;28;20447;-63
2023/06/17 07:44:45;;;;;;;11.23;10.13;;;;;;;;;;5032505;28;20460;-62
2023/06/17 07:47:12;;;;;;;10.47;9.57;;;;;;;;;;5033117;28;20432;-63
2023/06/17 07:49:39;;;;;;;11.53;10.33;;;;;;;;;;5032484;28;20442;-62
2023/06/17 07:52:07;;;;;;;9.67;8.67;;;;;;;;;;5032879;28;20593;-62
2023/06/17 07:54:35;;;;;;;10.07;9.07;;;;;;;;;;5032973;28;20446;-63
2023/06/17 07:57:02;;;;;;;12.40;9.40;;;;;;;;;;5032877;28;20506;-62
2023/06/17 07:59:29;;;;;;;9.57;8.40;;;;;;;;;;5032271;28;20527;-62
2023/06/17 08:01:58;;;;;;;10.13;9.13;;;;;;;;;;5032953;28;20448;-63
2023/06/17 08:04:26;;;;;;;14.73;9.53;;;;;;;;;;5033088;28;20441;-62
2023/06/17 08:06:53;;;;;;;10.20;9.20;;;;;;;;;;5032730;28;20792;-63
2023/06/17 08:09:20;;;;;;;12.53;9.47;;;;;;;;;;5032311;28;20520;-63
2023/06/17 08:11:47;;;;;;;10.30;9.30;;;;;;;;;;5032705;28;20449;-63
2023/06/17 08:14:15;;;;;;;13.53;9.50;;;;;;;;;;5032699;28;20445;-63
2023/06/17 08:16:42;;;;;;;10.37;9.37;;;;;;;;;;5036252;28;20433;-63
2023/06/17 08:19:11;;;;;;;10.10;9.20;;;;;;;;;;5035777;28;20533;-63
2023/06/17 08:21:38;;;;;;;11.17;10.17;;;;;;;;;;5036060;28;20480;-63
2023/06/17 08:24:18;;;;;;;10.20;9.30;;;;;;;;;;5035772;28;20485;-63
2023/06/17 08:26:45;;;;;;;14.20;9.17;;;;;;;;;;5036260;28;20514;-62
2023/06/17 08:29:14;;;;;;;10.03;8.77;;;;;;;;;;5035601;28;20448;-63
2023/06/17 08:31:41;;;;;;;10.03;9.03;;;;;;;;;;5036193;28;20442;-62
2023/06/17 08:34:08;;;;;;;11.37;9.50;;;;;;;;;;5035485;28;20442;-63
2023/06/17 08:36:38;;;;;;;10.97;9.97;;;;;;;;;;5035930;28;20791;-62
2023/06/17 08:39:05;;;;;;;9.57;8.63;;;;;;;;;;5035715;28;20471;-63
2023/06/17 08:41:33;;;;;;;10.30;9.27;;;;;;;;;;5036160;28;20492;-63
2023/06/17 08:44:02;;;;;;;9.03;8.10;;;;;;;;;;5035659;28;20461;-63
2023/06/17 08:46:29;;;;;;;9.90;8.97;;;;;;;;;;5035513;28;20478;-62
2023/06/17 08:48:57;;;;;;;11.57;9.60;;;;;;;;;;5034916;28;20434;-62
2023/06/17 08:51:24;;;;;;;9.87;8.90;;;;;;;;;;5034684;28;20450;-63
2023/06/17 08:53:53;;;;;;;9.70;8.80;;;;;;;;;;5035216;28;20954;-63
2023/06/17 08:56:20;;;;;;;8.77;8.03;;;;;;;;;;5035132;28;20445;-63
2023/06/17 08:58:49;;;;;;;9.50;8.50;;;;;;;;;;5035031;28;20525;-63
2023/06/17 09:01:17;;;;;;;9.03;7.87;;;;;;;;;;5034893;28;20564;-63
2023/06/17 09:03:44;;;;;;;10.97;8.60;;;;;;;;;;5035449;28;20452;-62
2023/06/17 09:06:20;;;;;;;9.77;8.73;;;;;;;;;;5035186;28;20532;-62
2023/06/17 09:08:47;;;;;;;9.87;8.30;;;;;;;;;;5020882;28;20439;-63
2023/06/17 09:11:15;;;;;;;9.33;8.57;;;;;;;;;;5014771;28;20455;-62
2023/06/17 09:13:48;;;;;;;10.13;9.20;;;;;;;;;;5015324;28;20435;-62
2023/06/17 09:16:15;;;;;;;10.20;9.20;;;;;;;;;;5015429;28;20463;-63
2023/06/17 09:18:42;;;;;;;10.00;9.10;;;;;;;;;;5015180;28;20466;-63
2023/06/17 09:21:10;;;;;;;8.60;7.70;;;;;;;;;;5014731;28;20471;-62
2023/06/17 09:23:37;;;;;;;9.00;8.13;;;;;;;;;;5014951;28;20481;-63
2023/06/17 09:26:05;;;;;;;10.10;9.00;;;;;;;;;;5014677;28;20490;-63
2023/06/17 09:28:33;;;;;;;8.80;7.97;;;;;;;;;;5015149;28;20538;-63
2023/06/17 09:31:04;;;;;;;8.27;7.43;;;;;;;;;;5015085;28;20534;-63
2023/06/17 09:33:31;;;;;;;13.23;7.70;;;;;;;;;;5014772;28;20536;-63
2023/06/17 09:36:03;;;;;;;8.77;7.90;;;;;;;;;;5015033;28;20803;-63
2023/06/17 09:38:31;;;;;;;16.23;9.63;;;;;;;;;;5014789;28;20941;-63
2023/06/17 09:40:59;;;;;;;8.80;8.10;;;;;;;;;;5014910;28;20547;-63
2023/06/17 09:43:27;;;;;;;9.10;8.30;;;;;;;;;;5014835;28;20488;-63
2023/06/17 09:45:59;;;;;;;11.50;7.83;;;;;;;;;;5015016;28;20486;-63
2023/06/17 09:48:29;;;;;;;7.23;6.63;;;;;;;;;;5014487;28;20882;-62
2023/06/17 09:50:57;;;;;;;6.80;6.30;;;;;;;;;;5014975;28;20481;-62
2023/06/17 09:53:27;;;;;;;9.47;7.17;;;;;;;;;;5014644;28;20532;-62
2023/06/17 09:55:56;;;;;;;8.53;7.70;;;;;;;;;;5014762;28;20451;-62
2023/06/17 09:58:24;;;;;;;10.87;9.43;;;;;;;;;;5014810;28;20454;-62
2023/06/17 10:00:52;;;;;;;8.27;7.57;;;;;;;;;;5014716;28;20490;-62
2023/06/17 10:03:21;;;;;;;8.00;7.20;;;;;;;;;;5014116;28;20481;-63
2023/06/17 10:05:54;;;;;;;8.53;7.73;;;;;;;;;;5014764;28;20457;-63
2023/06/17 10:08:22;;;;;;;8.07;7.30;;;;;;;;;;5014873;28;20499;-63
2023/06/17 10:10:50;;;;;;;8.30;7.50;;;;;;;;;;5013889;28;20459;-63
2023/06/17 10:13:20;;;;;;;9.40;7.80;;;;;;;;;;5013959;28;20513;-63
2023/06/17 10:15:48;;;;;;;9.40;7.17;;;;;;;;;;5014018;28;20454;-62
2023/06/17 10:18:16;;;;;;;8.23;6.93;;;;;;;;;;5014007;28;20444;-63
2023/06/17 10:20:45;;;;;;;8.37;7.67;;;;;;;;;;5013861;28;20969;-63
2023/06/17 10:23:13;;;;;;;8.93;7.83;;;;;;;;;;5014200;28;20451;-63
2023/06/17 10:25:41;;;;;;;9.90;9.10;;;;;;;;;;5013976;28;20432;-62
2023/06/17 10:28:09;;;;;;;8.77;8.03;;;;;;;;;;5014000;28;20935;-62
2023/06/17 10:30:39;;;;;;;7.10;6.50;;;;;;;;;;5013647;28;20539;-63
2023/06/17 10:33:08;;;;;;;6.23;5.73;;;;;;;;;;5014256;28;20514;-62
2023/06/17 10:35:38;;;;;;;7.10;6.50;;;;;;;;;;5013218;28;20539;-63
2023/06/17 10:38:08;;;;;;;9.20;7.70;;;;;;;;;;5012222;28;20462;-62
2023/06/17 10:40:40;;;;;;;8.57;6.63;;;;;;;;;;5013939;28;20870;-63
2023/06/17 10:43:18;;;;;;;7.00;6.40;;;;;;;;;;5012986;28;20520;-61
2023/06/17 10:45:55;;;;;;;7.70;6.80;;;;;;;;;;5012780;28;20480;-61
2023/06/17 10:48:23;;;;;;;7.90;6.53;;;;;;;;;;5013495;28;20444;-61
2023/06/17 10:50:54;;;;;;;7.10;6.60;;;;;;;;;;5013092;28;20450;-61
2023/06/17 10:53:30;;;;;;;7.63;6.60;;;;;;;;;;5013104;28;20448;-61
2023/06/17 10:55:58;;;;;;;7.50;6.87;;;;;;;;;;5012984;28;20454;-61
2023/06/17 10:58:30;;;;;;;7.17;6.57;;;;;;;;;;5013832;28;20435;-61
2023/06/17 11:01:01;;;;;;;10.23;7.30;;;;;;;;;;5013656;28;20471;-61
2023/06/17 11:03:29;;;;;;;6.17;5.57;;;;;;;;;;5013238;28;20456;-61
2023/06/17 11:05:59;;;;;;;6.50;6.00;;;;;;;;;;5012850;28;20805;-61
2023/06/17 11:08:26;;;;;;;9.40;7.07;;;;;;;;;;5013187;28;20470;-61
2023/06/17 11:10:54;;;;;;;7.13;6.40;;;;;;;;;;5013527;28;20455;-61
2023/06/17 11:13:22;;;;;;;6.73;6.13;;;;;;;;;;5013294;28;20536;-61
2023/06/17 11:15:55;;;;;;;7.23;6.60;;;;;;;;;;5012844;28;20462;-61
2023/06/17 11:18:23;;;;;;;7.80;7.00;;;;;;;;;;5013213;28;20496;-61
2023/06/17 11:20:50;;;;;;;7.83;6.27;;;;;;;;;;5013179;28;20439;-62
2023/06/17 11:23:17;;;;;;;6.87;6.20;;;;;;;;;;5012833;28;20457;-61
2023/06/17 11:25:44;;;;;;;6.53;5.97;;;;;;;;;;5012637;28;20953;-62
2023/06/17 11:28:13;;;;;;;7.40;6.70;;;;;;;;;;5012845;28;20452;-61
2023/06/17 11:30:41;;;;;;;8.87;6.80;;;;;;;;;;5012837;28;20446;-61
2023/06/17 11:33:08;;;;;;;6.17;5.57;;;;;;;;;;5012928;28;20521;-61
2023/06/17 11:35:36;;;;;;;10.47;6.73;;;;;;;;;;5012672;28;20476;-61
2023/06/17 11:38:04;;;;;;;12.27;7.10;;;;;;;;;;5013008;28;20512;-61
2023/06/17 11:40:31;;;;;;;9.97;6.73;;;;;;;;;;5013268;28;20425;-62
2023/06/17 11:42:58;;;;;;;6.73;6.00;;;;;;;;;;5012317;28;21084;-61
2023/06/17 11:45:30;;;;;;;6.53;5.93;;;;;;;;;;5012340;28;20497;-61
2023/06/17 11:47:57;;;;;;;6.93;6.23;;;;;;;;;;5012577;28;20434;-61
2023/06/17 11:50:29;;;;;;;6.43;5.80;;;;;;;;;;5015020;28;20437;-61
2023/06/17 11:52:57;;;;;;;6.00;5.50;;;;;;;;;;5017273;28;20450;-61
2023/06/17 11:55:30;;;;;;;5.20;4.80;;;;;;;;;;5016010;28;20495;-62
2023/06/17 11:57:57;;;;;;;6.40;5.80;;;;;;;;;;5016392;28;20429;-61
2023/06/17 12:00:25;;;;;;;6.23;5.63;;;;;;;;;;5016059;28;20947;-61
2023/06/17 12:02:55;;;;;;;6.30;5.80;;;;;;;;;;5015418;28;20573;-61
2023/06/17 12:05:27;;;;;;;7.97;5.90;;;;;;;;;;5016029;28;20439;-62
2023/06/17 12:07:54;;;;;;;7.23;6.07;;;;;;;;;;5016263;28;20435;-61
2023/06/17 12:10:21;;;;;;;7.60;5.50;;;;;;;;;;5015543;28;20445;-61
2023/06/17 12:12:48;;;;;;;8.67;5.87;;;;;;;;;;5015456;28;20453;-61
2023/06/17 12:15:16;;;;;;;7.67;6.20;;;;;;;;;;5015528;28;20460;-61
2023/06/17 12:17:43;;;;;;;6.40;5.80;;;;;;;;;;5015233;28;21000;-62
2023/06/17 12:20:15;;;;;;;7.90;6.23;;;;;;;;;;5016264;28;20446;-61
2023/06/17 12:22:43;;;;;;;7.10;6.23;;;;;;;;;;5015523;28;20472;-61
2023/06/17 12:25:11;;;;;;;7.03;5.70;;;;;;;;;;5015661;28;20454;-61
2023/06/17 12:27:38;;;;;;;7.10;6.40;;;;;;;;;;5015521;28;20453;-61
2023/06/17 12:30:06;;;;;;;7.33;6.60;;;;;;;;;;5015559;28;20890;-62
2023/06/17 12:32:33;;;;;;;6.87;6.27;;;;;;;;;;5015317;28;20464;-61
2023/06/17 12:35:00;;;;;;;6.83;6.27;;;;;;;;;;5015419;28;20925;-61
2023/06/17 12:37:31;;;;;;;6.93;6.33;;;;;;;;;;5015562;28;20456;-63
2023/06/17 12:40:00;;;;;;;7.67;6.37;;;;;;;;;;5015416;28;20491;-61
2023/06/17 12:42:27;;;;;;;7.37;6.43;;;;;;;;;;5015426;28;20493;-61
2023/06/17 12:44:55;;;;;;;7.90;7.10;;;;;;;;;;5014935;28;20486;-61
2023/06/17 12:47:23;;;;;;;6.97;6.30;;;;;;;;;;5014890;28;20882;-62
2023/06/17 12:49:51;;;;;;;9.70;5.77;;;;;;;;;;5015628;28;20492;-62
2023/06/17 12:52:18;;;;;;;6.90;5.97;;;;;;;;;;5014993;28;20499;-61
2023/06/17 12:54:47;;;;;;;6.80;6.30;;;;;;;;;;5015093;28;20952;-63
2023/06/17 12:57:15;;;;;;;6.40;5.80;;;;;;;;;;5015013;28;20460;-62
2023/06/17 12:59:42;;;;;;;7.17;6.40;;;;;;;;;;5014824;28;20534;-61
2023/06/17 13:02:09;;;;;;;6.57;6.07;;;;;;;;;;5013551;28;20485;-62
2023/06/17 13:04:36;;;;;;;6.73;6.13;;;;;;;;;;5014300;28;20436;-61
2023/06/17 13:07:03;;;;;;;6.97;6.30;;;;;;;;;;5014718;28;20416;-61
2023/06/17 13:09:31;;;;;;;9.27;6.60;;;;;;;;;;5014605;28;20450;-61
2023/06/17 13:11:59;;;;;;;6.80;6.07;;;;;;;;;;5014542;28;20736;-61
2023/06/17 13:14:27;;;;;;;6.63;6.03;;;;;;;;;;5014931;28;20417;-64
2023/06/17 13:16:55;;;;;;;8.70;5.87;;;;;;;;;;5014943;28;20927;-61
2023/06/17 13:19:22;;;;;;;6.53;5.93;;;;;;;;;;5014662;28;20444;-61
2023/06/17 13:21:49;;;;;;;7.93;7.07;;;;;;;;;;5014790;28;20485;-62
2023/06/17 13:24:18;;;;;;;6.57;6.07;;;;;;;;;;5014610;28;20458;-61
2023/06/17 13:26:45;;;;;;;6.50;5.87;;;;;;;;;;5014961;28;20457;-62
2023/06/17 13:29:14;;;;;;;6.73;6.13;;;;;;;;;;5014395;28;20964;-62
2023/06/17 13:31:41;;;;;;;6.67;5.93;;;;;;;;;;5014578;28;20518;-61
2023/06/17 13:34:08;;;;;;;6.70;6.00;;;;;;;;;;5014659;28;20449;-63
2023/06/17 13:36:39;;;;;;;7.63;6.83;;;;;;;;;;5014642;28;20424;-62
2023/06/17 13:39:06;;;;;;;7.13;6.50;;;;;;;;;;5014819;28;20421;-63
2023/06/17 13:41:33;;;;;;;12.63;6.27;;;;;;;;;;5014139;28;20443;-62
2023/06/17 13:44:01;;;;;;;6.77;6.27;;;;;;;;;;5014401;28;20450;-62
2023/06/17 13:46:29;;;;;;;6.70;6.10;;;;;;;;;;5014206;28;20572;-62
2023/06/17 13:48:56;;;;;;;7.00;6.40;;;;;;;;;;5013983;28;20456;-62
2023/06/17 13:51:23;;;;;;;6.50;6.00;;;;;;;;;;5013946;28;20452;-62
2023/06/17 13:53:51;;;;;;;6.83;6.13;;;;;;;;;;5014251;28;20436;-62
2023/06/17 13:56:18;;;;;;;7.23;6.20;;;;;;;;;;5014243;28;20446;-62
2023/06/17 13:58:46;;;;;;;7.37;6.77;;;;;;;;;;5013846;28;20600;-62
2023/06/17 14:01:13;;;;;;;9.47;7.03;;;;;;;;;;5013823;28;20992;-62
2023/06/17 14:03:41;;;;;;;7.17;6.50;;;;;;;;;;5013754;28;21006;-62
2023/06/17 14:06:09;;;;;;;7.20;6.33;;;;;;;;;;5014244;28;20446;-62
2023/06/17 14:08:36;;;;;;;8.60;6.30;;;;;;;;;;5014076;28;20454;-62
2023/06/17 14:11:03;;;;;;;7.27;5.53;;;;;;;;;;5014472;28;20468;-62
2023/06/17 14:13:30;;;;;;;7.07;6.57;;;;;;;;;;5013543;28;20463;-62
2023/06/17 14:15:57;;;;;;;8.00;7.10;;;;;;;;;;5013936;28;20633;-62
2023/06/17 14:18:25;;;;;;;7.53;6.80;;;;;;;;;;5013789;28;20438;-62
2023/06/17 14:20:53;;;;;;;6.67;6.17;;;;;;;;;;5014195;28;20455;-62
2023/06/17 14:23:20;;;;;;;6.80;6.30;;;;;;;;;;5013072;28;20917;-62
2023/06/17 14:25:48;;;;;;;9.83;7.60;;;;;;;;;;5013137;28;20447;-62
2023/06/17 14:28:16;;;;;;;5.97;5.50;;;;;;;;;;5013338;28;20452;-62
2023/06/17 14:30:43;;;;;;;7.93;7.10;;;;;;;;;;5013549;28;20804;-62
2023/06/17 14:33:10;;;;;;;6.77;6.10;;;;;;;;;;5013585;28;20530;-62
2023/06/17 14:35:37;;;;;;;6.13;5.63;;;;;;;;;;5013545;28;20443;-62
2023/06/17 14:38:08;;;;;;;6.50;6.00;;;;;;;;;;5013387;28;20446;-62
2023/06/17 14:40:35;;;;;;;8.33;6.70;;;;;;;;;;5013309;28;20446;-62